sensor_id;sensor_type;location;lat;lon;timestamp;P1;durP1;ratioP1;P2;durP2;ratioP2
25079;SDS011;13071;48.868;9.996;2022-10-26T00:00:29;2.28;;;2.08;;
25079;SDS011;13071;48.868;9.996;2022-10-26T00:02:56;2.60;;;1.95;;
25079;SDS011;13071;48.868;9.996;2022-10-26T00:05:22;2.70;;;2.20;;
25079;SDS011;13071;48.868;9.996;2022-10-26T00:07:51;2.47;;;1.95;;
25079;SDS011;13071;48.868;9.996;2022-10-26T00:10:17;3.38;;;1.85;;
25079;SDS011;13071;48.868;9.996;2022-10-26T00:12:47;4.78;;;1.70;;
25079;SDS011;13071;48.868;9.996;2022-10-26T00:15:14;2.35;;;2.10;;
25079;SDS011;13071;48.868;9.996;2022-10-26T00:17:41;4.80;;;2.15;;
25079;SDS011;13071;48.868;9.996;2022-10-26T00:20:08;2.92;;;1.77;;
25079;SDS011;13071;48.868;9.996;2022-10-26T00:22:35;4.25;;;1.95;;
25079;SDS011;13071;48.868;9.996;2022-10-26T00:25:03;1.98;;;1.58;;
25079;SDS011;13071;48.868;9.996;2022-10-26T00:27:31;5.20;;;1.60;;
25079;SDS011;13071;48.868;9.996;2022-10-26T00:29:58;1.08;;;1.08;;
25079;SDS011;13071;48.868;9.996;2022-10-26T00:32:25;2.08;;;1.23;;
25079;SDS011;13071;48.868;9.996;2022-10-26T00:34:51;3.10;;;1.50;;
25079;SDS011;13071;48.868;9.996;2022-10-26T00:37:18;4.28;;;1.30;;
25079;SDS011;13071;48.868;9.996;2022-10-26T00:39:45;1.27;;;1.17;;
25079;SDS011;13071;48.868;9.996;2022-10-26T00:42:13;4.47;;;1.30;;
25079;SDS011;13071;48.868;9.996;2022-10-26T00:44:56;2.80;;;1.30;;
25079;SDS011;13071;48.868;9.996;2022-10-26T00:47:28;7.20;;;1.50;;
25079;SDS011;13071;48.868;9.996;2022-10-26T00:50:02;3.33;;;1.27;;
25079;SDS011;13071;48.868;9.996;2022-10-26T00:52:32;2.92;;;1.27;;
25079;SDS011;13071;48.868;9.996;2022-10-26T00:54:59;2.25;;;1.30;;
25079;SDS011;13071;48.868;9.996;2022-10-26T00:57:27;1.60;;;1.20;;
25079;SDS011;13071;48.868;9.996;2022-10-26T00:59:54;1.35;;;1.25;;
25079;SDS011;13071;48.868;9.996;2022-10-26T01:02:23;2.70;;;1.40;;
25079;SDS011;13071;48.868;9.996;2022-10-26T01:04:50;3.45;;;1.58;;
25079;SDS011;13071;48.868;9.996;2022-10-26T01:07:19;2.28;;;1.45;;
25079;SDS011;13071;48.868;9.996;2022-10-26T01:09:46;2.40;;;1.40;;
25079;SDS011;13071;48.868;9.996;2022-10-26T01:12:14;4.05;;;1.60;;
25079;SDS011;13071;48.868;9.996;2022-10-26T01:14:42;7.85;;;1.83;;
25079;SDS011;13071;48.868;9.996;2022-10-26T01:17:12;2.83;;;2.08;;
25079;SDS011;13071;48.868;9.996;2022-10-26T01:22:48;6.03;;;1.95;;
25079;SDS011;13071;48.868;9.996;2022-10-26T01:25:24;2.65;;;1.60;;
25079;SDS011;13071;48.868;9.996;2022-10-26T01:28:04;1.63;;;1.50;;
25079;SDS011;13071;48.868;9.996;2022-10-26T01:30:37;4.93;;;1.73;;
25079;SDS011;13071;48.868;9.996;2022-10-26T01:33:18;3.10;;;1.48;;
25079;SDS011;13071;48.868;9.996;2022-10-26T01:35:53;2.22;;;2.00;;
25079;SDS011;13071;48.868;9.996;2022-10-26T01:38:29;5.30;;;1.80;;
25079;SDS011;13071;48.868;9.996;2022-10-26T01:41:02;2.72;;;1.38;;
25079;SDS011;13071;48.868;9.996;2022-10-26T01:43:36;3.80;;;1.60;;
25079;SDS011;13071;48.868;9.996;2022-10-26T01:46:08;1.60;;;1.48;;
25079;SDS011;13071;48.868;9.996;2022-10-26T01:48:36;3.75;;;1.45;;
25079;SDS011;13071;48.868;9.996;2022-10-26T01:51:06;2.33;;;1.50;;
25079;SDS011;13071;48.868;9.996;2022-10-26T01:53:36;1.73;;;1.52;;
25079;SDS011;13071;48.868;9.996;2022-10-26T01:56:09;6.22;;;1.83;;
25079;SDS011;13071;48.868;9.996;2022-10-26T01:59:02;6.30;;;1.65;;
25079;SDS011;13071;48.868;9.996;2022-10-26T02:01:46;1.60;;;1.50;;
25079;SDS011;13071;48.868;9.996;2022-10-26T02:04:38;4.68;;;2.22;;
25079;SDS011;13071;48.868;9.996;2022-10-26T02:07:16;1.38;;;1.35;;
25079;SDS011;13071;48.868;9.996;2022-10-26T02:09:51;2.38;;;1.60;;
25079;SDS011;13071;48.868;9.996;2022-10-26T02:12:27;4.28;;;2.08;;
25079;SDS011;13071;48.868;9.996;2022-10-26T02:15:04;2.28;;;1.70;;
25079;SDS011;13071;48.868;9.996;2022-10-26T02:17:36;3.42;;;1.90;;
25079;SDS011;13071;48.868;9.996;2022-10-26T02:20:09;1.80;;;1.48;;
25079;SDS011;13071;48.868;9.996;2022-10-26T02:22:44;6.07;;;2.05;;
25079;SDS011;13071;48.868;9.996;2022-10-26T02:25:14;5.53;;;1.90;;
25079;SDS011;13071;48.868;9.996;2022-10-26T02:27:46;3.97;;;1.75;;
25079;SDS011;13071;48.868;9.996;2022-10-26T02:30:17;3.03;;;2.47;;
25079;SDS011;13071;48.868;9.996;2022-10-26T02:32:47;2.22;;;1.95;;
25079;SDS011;13071;48.868;9.996;2022-10-26T02:35:17;5.00;;;2.15;;
25079;SDS011;13071;48.868;9.996;2022-10-26T02:37:47;10.48;;;2.72;;
25079;SDS011;13071;48.868;9.996;2022-10-26T02:40:17;2.15;;;1.80;;
25079;SDS011;13071;48.868;9.996;2022-10-26T02:42:47;4.85;;;2.25;;
25079;SDS011;13071;48.868;9.996;2022-10-26T02:45:18;5.15;;;2.33;;
25079;SDS011;13071;48.868;9.996;2022-10-26T02:47:49;3.28;;;2.03;;
25079;SDS011;13071;48.868;9.996;2022-10-26T02:50:17;4.93;;;1.80;;
25079;SDS011;13071;48.868;9.996;2022-10-26T02:52:47;4.32;;;1.77;;
25079;SDS011;13071;48.868;9.996;2022-10-26T02:55:21;5.53;;;2.25;;
25079;SDS011;13071;48.868;9.996;2022-10-26T02:57:51;6.85;;;1.90;;
25079;SDS011;13071;48.868;9.996;2022-10-26T03:00:22;1.95;;;1.50;;
25079;SDS011;13071;48.868;9.996;2022-10-26T03:02:51;2.85;;;1.77;;
25079;SDS011;13071;48.868;9.996;2022-10-26T03:05:22;5.40;;;1.80;;
25079;SDS011;13071;48.868;9.996;2022-10-26T03:07:51;2.60;;;1.88;;
25079;SDS011;13071;48.868;9.996;2022-10-26T03:10:17;3.03;;;1.90;;
25079;SDS011;13071;48.868;9.996;2022-10-26T03:12:44;2.85;;;2.03;;
25079;SDS011;13071;48.868;9.996;2022-10-26T03:15:11;2.25;;;1.92;;
25079;SDS011;13071;48.868;9.996;2022-10-26T03:17:38;1.65;;;1.55;;
25079;SDS011;13071;48.868;9.996;2022-10-26T03:20:06;1.88;;;1.63;;
25079;SDS011;13071;48.868;9.996;2022-10-26T03:22:34;3.72;;;2.00;;
25079;SDS011;13071;48.868;9.996;2022-10-26T03:25:01;1.98;;;1.67;;
25079;SDS011;13071;48.868;9.996;2022-10-26T03:27:27;2.90;;;1.60;;
25079;SDS011;13071;48.868;9.996;2022-10-26T03:29:54;2.95;;;1.67;;
25079;SDS011;13071;48.868;9.996;2022-10-26T03:32:21;2.60;;;1.63;;
25079;SDS011;13071;48.868;9.996;2022-10-26T03:34:48;2.88;;;1.58;;
25079;SDS011;13071;48.868;9.996;2022-10-26T03:37:16;2.28;;;1.80;;
25079;SDS011;13071;48.868;9.996;2022-10-26T03:39:42;4.05;;;1.65;;
25079;SDS011;13071;48.868;9.996;2022-10-26T03:42:09;5.78;;;2.30;;
25079;SDS011;13071;48.868;9.996;2022-10-26T03:44:36;2.85;;;1.65;;
25079;SDS011;13071;48.868;9.996;2022-10-26T03:47:03;4.25;;;1.70;;
25079;SDS011;13071;48.868;9.996;2022-10-26T03:49:29;2.85;;;2.00;;
25079;SDS011;13071;48.868;9.996;2022-10-26T03:51:56;2.13;;;1.92;;
25079;SDS011;13071;48.868;9.996;2022-10-26T03:54:24;2.90;;;1.67;;
25079;SDS011;13071;48.868;9.996;2022-10-26T03:56:50;2.10;;;1.90;;
25079;SDS011;13071;48.868;9.996;2022-10-26T03:59:17;3.78;;;1.95;;
25079;SDS011;13071;48.868;9.996;2022-10-26T04:01:44;1.55;;;1.45;;
25079;SDS011;13071;48.868;9.996;2022-10-26T04:04:10;4.20;;;1.80;;
25079;SDS011;13071;48.868;9.996;2022-10-26T04:06:37;6.25;;;2.35;;
25079;SDS011;13071;48.868;9.996;2022-10-26T04:09:03;1.80;;;1.52;;
25079;SDS011;13071;48.868;9.996;2022-10-26T04:11:33;4.22;;;1.90;;
25079;SDS011;13071;48.868;9.996;2022-10-26T04:14:00;2.60;;;1.73;;
25079;SDS011;13071;48.868;9.996;2022-10-26T04:16:26;4.35;;;2.05;;
25079;SDS011;13071;48.868;9.996;2022-10-26T04:18:53;2.00;;;1.80;;
25079;SDS011;13071;48.868;9.996;2022-10-26T04:21:19;1.60;;;1.50;;
25079;SDS011;13071;48.868;9.996;2022-10-26T04:23:46;2.03;;;1.60;;
25079;SDS011;13071;48.868;9.996;2022-10-26T04:26:13;5.72;;;1.77;;
25079;SDS011;13071;48.868;9.996;2022-10-26T04:28:40;2.25;;;1.77;;
25079;SDS011;13071;48.868;9.996;2022-10-26T04:31:07;1.85;;;1.75;;
25079;SDS011;13071;48.868;9.996;2022-10-26T04:33:34;3.63;;;1.90;;
25079;SDS011;13071;48.868;9.996;2022-10-26T04:36:00;2.70;;;1.48;;
25079;SDS011;13071;48.868;9.996;2022-10-26T04:38:27;2.03;;;1.45;;
25079;SDS011;13071;48.868;9.996;2022-10-26T04:40:54;3.65;;;2.10;;
25079;SDS011;13071;48.868;9.996;2022-10-26T04:43:20;1.67;;;1.55;;
25079;SDS011;13071;48.868;9.996;2022-10-26T04:45:48;1.65;;;1.55;;
25079;SDS011;13071;48.868;9.996;2022-10-26T04:48:15;2.50;;;1.40;;
25079;SDS011;13071;48.868;9.996;2022-10-26T04:50:41;2.15;;;1.48;;
25079;SDS011;13071;48.868;9.996;2022-10-26T04:53:08;2.35;;;1.60;;
25079;SDS011;13071;48.868;9.996;2022-10-26T04:55:35;1.70;;;1.60;;
25079;SDS011;13071;48.868;9.996;2022-10-26T04:58:02;4.05;;;1.40;;
25079;SDS011;13071;48.868;9.996;2022-10-26T05:00:29;2.92;;;1.80;;
25079;SDS011;13071;48.868;9.996;2022-10-26T05:03:01;3.50;;;1.80;;
25079;SDS011;13071;48.868;9.996;2022-10-26T05:05:31;2.95;;;1.50;;
25079;SDS011;13071;48.868;9.996;2022-10-26T05:07:59;4.20;;;1.73;;
25079;SDS011;13071;48.868;9.996;2022-10-26T05:10:26;2.33;;;1.70;;
25079;SDS011;13071;48.868;9.996;2022-10-26T05:12:53;2.05;;;1.85;;
25079;SDS011;13071;48.868;9.996;2022-10-26T05:15:21;1.60;;;1.50;;
25079;SDS011;13071;48.868;9.996;2022-10-26T05:17:53;3.13;;;1.80;;
25079;SDS011;13071;48.868;9.996;2022-10-26T05:20:22;2.33;;;1.67;;
25079;SDS011;13071;48.868;9.996;2022-10-26T05:22:53;3.75;;;1.65;;
25079;SDS011;13071;48.868;9.996;2022-10-26T05:25:20;1.90;;;1.73;;
25079;SDS011;13071;48.868;9.996;2022-10-26T05:27:47;2.85;;;1.70;;
25079;SDS011;13071;48.868;9.996;2022-10-26T05:30:13;4.03;;;2.30;;
25079;SDS011;13071;48.868;9.996;2022-10-26T05:32:40;2.10;;;1.90;;
25079;SDS011;13071;48.868;9.996;2022-10-26T05:35:07;4.63;;;1.98;;
25079;SDS011;13071;48.868;9.996;2022-10-26T05:37:35;1.85;;;1.75;;
25079;SDS011;13071;48.868;9.996;2022-10-26T05:40:01;2.20;;;1.98;;
25079;SDS011;13071;48.868;9.996;2022-10-26T05:42:28;3.08;;;2.38;;
25079;SDS011;13071;48.868;9.996;2022-10-26T05:44:55;1.80;;;1.70;;
25079;SDS011;13071;48.868;9.996;2022-10-26T05:47:21;2.33;;;1.88;;
25079;SDS011;13071;48.868;9.996;2022-10-26T05:49:48;2.63;;;1.77;;
25079;SDS011;13071;48.868;9.996;2022-10-26T05:52:15;6.00;;;2.20;;
25079;SDS011;13071;48.868;9.996;2022-10-26T05:54:42;4.15;;;2.05;;
25079;SDS011;13071;48.868;9.996;2022-10-26T05:57:10;2.08;;;1.90;;
25079;SDS011;13071;48.868;9.996;2022-10-26T05:59:37;3.40;;;2.10;;
25079;SDS011;13071;48.868;9.996;2022-10-26T06:02:05;2.50;;;1.52;;
25079;SDS011;13071;48.868;9.996;2022-10-26T06:04:41;3.95;;;1.83;;
25079;SDS011;13071;48.868;9.996;2022-10-26T06:07:12;5.13;;;2.42;;
25079;SDS011;13071;48.868;9.996;2022-10-26T06:09:40;2.55;;;2.30;;
25079;SDS011;13071;48.868;9.996;2022-10-26T06:12:10;5.57;;;2.67;;
25079;SDS011;13071;48.868;9.996;2022-10-26T06:14:38;2.28;;;2.03;;
25079;SDS011;13071;48.868;9.996;2022-10-26T06:17:10;4.65;;;2.40;;
25079;SDS011;13071;48.868;9.996;2022-10-26T06:19:51;4.05;;;2.22;;
25079;SDS011;13071;48.868;9.996;2022-10-26T06:22:32;3.05;;;2.30;;
25079;SDS011;13071;48.868;9.996;2022-10-26T06:25:13;3.78;;;2.28;;
25079;SDS011;13071;48.868;9.996;2022-10-26T06:27:49;2.58;;;2.10;;
25079;SDS011;13071;48.868;9.996;2022-10-26T06:30:22;5.90;;;2.28;;
25079;SDS011;13071;48.868;9.996;2022-10-26T06:32:48;7.70;;;2.00;;
25079;SDS011;13071;48.868;9.996;2022-10-26T06:35:21;4.95;;;2.45;;
25079;SDS011;13071;48.868;9.996;2022-10-26T06:37:54;3.92;;;2.15;;
25079;SDS011;13071;48.868;9.996;2022-10-26T06:40:23;4.80;;;2.30;;
25079;SDS011;13071;48.868;9.996;2022-10-26T06:42:50;2.90;;;2.20;;
25079;SDS011;13071;48.868;9.996;2022-10-26T06:45:18;4.47;;;2.00;;
25079;SDS011;13071;48.868;9.996;2022-10-26T06:47:48;2.20;;;2.00;;
25079;SDS011;13071;48.868;9.996;2022-10-26T06:50:27;3.72;;;2.00;;
25079;SDS011;13071;48.868;9.996;2022-10-26T06:53:01;4.85;;;1.90;;
25079;SDS011;13071;48.868;9.996;2022-10-26T06:55:38;3.25;;;2.08;;
25079;SDS011;13071;48.868;9.996;2022-10-26T06:58:07;2.28;;;2.00;;
25079;SDS011;13071;48.868;9.996;2022-10-26T07:00:38;2.05;;;1.85;;
25079;SDS011;13071;48.868;9.996;2022-10-26T07:03:05;2.28;;;2.05;;
25079;SDS011;13071;48.868;9.996;2022-10-26T07:05:32;2.80;;;2.00;;
25079;SDS011;13071;48.868;9.996;2022-10-26T07:07:58;2.33;;;1.92;;
25079;SDS011;13071;48.868;9.996;2022-10-26T07:10:25;2.05;;;1.80;;
25079;SDS011;13071;48.868;9.996;2022-10-26T07:12:53;2.95;;;1.83;;
25079;SDS011;13071;48.868;9.996;2022-10-26T07:15:20;2.95;;;2.08;;
25079;SDS011;13071;48.868;9.996;2022-10-26T07:17:47;4.07;;;2.00;;
25079;SDS011;13071;48.868;9.996;2022-10-26T07:20:14;2.25;;;1.73;;
25079;SDS011;13071;48.868;9.996;2022-10-26T07:22:42;3.70;;;1.90;;
25079;SDS011;13071;48.868;9.996;2022-10-26T07:25:09;2.55;;;2.17;;
25079;SDS011;13071;48.868;9.996;2022-10-26T07:27:36;3.15;;;1.90;;
25079;SDS011;13071;48.868;9.996;2022-10-26T07:30:05;5.38;;;1.88;;
25079;SDS011;13071;48.868;9.996;2022-10-26T07:32:32;4.53;;;2.38;;
25079;SDS011;13071;48.868;9.996;2022-10-26T07:34:58;2.05;;;1.90;;
25079;SDS011;13071;48.868;9.996;2022-10-26T07:37:25;3.83;;;1.83;;
25079;SDS011;13071;48.868;9.996;2022-10-26T07:39:52;2.80;;;2.00;;
25079;SDS011;13071;48.868;9.996;2022-10-26T07:42:18;2.35;;;2.15;;
25079;SDS011;13071;48.868;9.996;2022-10-26T07:44:45;1.95;;;1.70;;
25079;SDS011;13071;48.868;9.996;2022-10-26T07:47:13;3.55;;;2.40;;
25079;SDS011;13071;48.868;9.996;2022-10-26T07:49:40;2.67;;;2.00;;
25079;SDS011;13071;48.868;9.996;2022-10-26T07:52:06;2.08;;;1.98;;
25079;SDS011;13071;48.868;9.996;2022-10-26T07:54:34;3.10;;;2.35;;
25079;SDS011;13071;48.868;9.996;2022-10-26T07:57:01;4.45;;;2.20;;
25079;SDS011;13071;48.868;9.996;2022-10-26T07:59:28;3.53;;;2.58;;
25079;SDS011;13071;48.868;9.996;2022-10-26T08:01:54;2.75;;;2.40;;
25079;SDS011;13071;48.868;9.996;2022-10-26T08:04:22;4.40;;;2.58;;
25079;SDS011;13071;48.868;9.996;2022-10-26T08:06:49;3.03;;;2.30;;
25079;SDS011;13071;48.868;9.996;2022-10-26T08:09:15;3.13;;;2.58;;
25079;SDS011;13071;48.868;9.996;2022-10-26T08:11:42;2.50;;;2.30;;
25079;SDS011;13071;48.868;9.996;2022-10-26T08:14:09;6.38;;;2.80;;
25079;SDS011;13071;48.868;9.996;2022-10-26T08:16:36;3.63;;;2.33;;
25079;SDS011;13071;48.868;9.996;2022-10-26T08:19:04;4.13;;;2.65;;
25079;SDS011;13071;48.868;9.996;2022-10-26T08:21:32;4.53;;;2.78;;
25079;SDS011;13071;48.868;9.996;2022-10-26T08:23:58;3.40;;;2.17;;
25079;SDS011;13071;48.868;9.996;2022-10-26T08:26:25;4.93;;;2.78;;
25079;SDS011;13071;48.868;9.996;2022-10-26T08:28:51;4.82;;;2.30;;
25079;SDS011;13071;48.868;9.996;2022-10-26T08:31:18;3.58;;;2.33;;
25079;SDS011;13071;48.868;9.996;2022-10-26T08:33:44;4.45;;;2.30;;
25079;SDS011;13071;48.868;9.996;2022-10-26T08:36:11;2.50;;;2.30;;
25079;SDS011;13071;48.868;9.996;2022-10-26T08:38:45;4.40;;;2.53;;
25079;SDS011;13071;48.868;9.996;2022-10-26T08:41:12;4.88;;;2.58;;
25079;SDS011;13071;48.868;9.996;2022-10-26T08:43:40;8.43;;;2.78;;
25079;SDS011;13071;48.868;9.996;2022-10-26T08:46:14;4.15;;;2.65;;
25079;SDS011;13071;48.868;9.996;2022-10-26T08:48:43;8.57;;;4.22;;
25079;SDS011;13071;48.868;9.996;2022-10-26T08:51:13;6.50;;;3.50;;
25079;SDS011;13071;48.868;9.996;2022-10-26T08:53:48;5.32;;;3.10;;
25079;SDS011;13071;48.868;9.996;2022-10-26T08:56:18;6.78;;;3.90;;
25079;SDS011;13071;48.868;9.996;2022-10-26T08:58:48;6.63;;;3.20;;
25079;SDS011;13071;48.868;9.996;2022-10-26T09:01:19;5.20;;;2.83;;
25079;SDS011;13071;48.868;9.996;2022-10-26T09:03:46;3.53;;;2.67;;
25079;SDS011;13071;48.868;9.996;2022-10-26T09:06:16;4.03;;;2.38;;
25079;SDS011;13071;48.868;9.996;2022-10-26T09:08:55;2.13;;;1.92;;
25079;SDS011;13071;48.868;9.996;2022-10-26T09:11:32;4.05;;;2.20;;
25079;SDS011;13071;48.868;9.996;2022-10-26T09:14:12;5.82;;;2.33;;
25079;SDS011;13071;48.868;9.996;2022-10-26T09:16:45;5.00;;;2.30;;
25079;SDS011;13071;48.868;9.996;2022-10-26T09:22:26;2.17;;;1.98;;
25079;SDS011;13071;48.868;9.996;2022-10-26T09:25:02;4.95;;;2.50;;
25079;SDS011;13071;48.868;9.996;2022-10-26T09:27:40;5.00;;;2.28;;
25079;SDS011;13071;48.868;9.996;2022-10-26T09:30:11;4.82;;;2.50;;
25079;SDS011;13071;48.868;9.996;2022-10-26T09:32:41;5.22;;;2.40;;
25079;SDS011;13071;48.868;9.996;2022-10-26T09:35:12;3.97;;;2.17;;
25079;SDS011;13071;48.868;9.996;2022-10-26T09:37:42;6.00;;;2.17;;
25079;SDS011;13071;48.868;9.996;2022-10-26T09:40:17;2.95;;;2.47;;
25079;SDS011;13071;48.868;9.996;2022-10-26T09:42:48;3.78;;;2.22;;
25079;SDS011;13071;48.868;9.996;2022-10-26T09:45:23;4.20;;;2.22;;
25079;SDS011;13071;48.868;9.996;2022-10-26T09:47:55;4.22;;;2.45;;
25079;SDS011;13071;48.868;9.996;2022-10-26T09:50:27;6.82;;;2.53;;
25079;SDS011;13071;48.868;9.996;2022-10-26T09:52:58;3.78;;;2.03;;
25079;SDS011;13071;48.868;9.996;2022-10-26T09:55:26;4.80;;;3.13;;
25079;SDS011;13071;48.868;9.996;2022-10-26T09:57:55;6.82;;;3.58;;
25079;SDS011;13071;48.868;9.996;2022-10-26T10:00:24;6.18;;;3.28;;
25079;SDS011;13071;48.868;9.996;2022-10-26T10:02:53;6.90;;;2.78;;
25079;SDS011;13071;48.868;9.996;2022-10-26T10:05:24;6.00;;;2.80;;
25079;SDS011;13071;48.868;9.996;2022-10-26T10:08:05;9.85;;;2.20;;
25079;SDS011;13071;48.868;9.996;2022-10-26T10:10:37;8.27;;;2.65;;
25079;SDS011;13071;48.868;9.996;2022-10-26T10:13:14;4.72;;;2.58;;
25079;SDS011;13071;48.868;9.996;2022-10-26T10:15:46;7.03;;;2.30;;
25079;SDS011;13071;48.868;9.996;2022-10-26T10:18:17;4.85;;;2.20;;
25079;SDS011;13071;48.868;9.996;2022-10-26T10:20:49;3.53;;;2.28;;
25079;SDS011;13071;48.868;9.996;2022-10-26T10:23:23;3.33;;;2.17;;
25079;SDS011;13071;48.868;9.996;2022-10-26T10:25:58;5.68;;;2.70;;
25079;SDS011;13071;48.868;9.996;2022-10-26T10:28:30;5.40;;;2.22;;
25079;SDS011;13071;48.868;9.996;2022-10-26T10:30:58;10.35;;;2.80;;
25079;SDS011;13071;48.868;9.996;2022-10-26T10:33:36;7.97;;;2.42;;
25079;SDS011;13071;48.868;9.996;2022-10-26T10:36:05;6.32;;;2.00;;
25079;SDS011;13071;48.868;9.996;2022-10-26T10:38:38;2.78;;;2.22;;
25079;SDS011;13071;48.868;9.996;2022-10-26T10:41:14;5.50;;;2.10;;
25079;SDS011;13071;48.868;9.996;2022-10-26T10:43:47;4.25;;;1.83;;
25079;SDS011;13071;48.868;9.996;2022-10-26T10:46:17;6.22;;;2.40;;
25079;SDS011;13071;48.868;9.996;2022-10-26T10:48:46;4.82;;;2.10;;
25079;SDS011;13071;48.868;9.996;2022-10-26T10:51:17;4.90;;;2.20;;
25079;SDS011;13071;48.868;9.996;2022-10-26T10:53:46;6.47;;;2.30;;
25079;SDS011;13071;48.868;9.996;2022-10-26T10:59:21;5.25;;;2.10;;
25079;SDS011;13071;48.868;9.996;2022-10-26T11:02:01;4.75;;;2.20;;
25079;SDS011;13071;48.868;9.996;2022-10-26T11:04:51;3.42;;;2.20;;
25079;SDS011;13071;48.868;9.996;2022-10-26T11:07:29;5.22;;;2.20;;
25079;SDS011;13071;48.868;9.996;2022-10-26T11:10:02;5.18;;;2.17;;
25079;SDS011;13071;48.868;9.996;2022-10-26T11:12:31;4.88;;;1.98;;
25079;SDS011;13071;48.868;9.996;2022-10-26T11:15:12;3.40;;;1.52;;
25079;SDS011;13071;48.868;9.996;2022-10-26T11:17:45;7.75;;;2.10;;
25079;SDS011;13071;48.868;9.996;2022-10-26T11:20:19;6.50;;;1.77;;
25079;SDS011;13071;48.868;9.996;2022-10-26T11:22:55;4.13;;;2.10;;
25079;SDS011;13071;48.868;9.996;2022-10-26T11:25:27;3.63;;;1.90;;
25079;SDS011;13071;48.868;9.996;2022-10-26T11:28:01;4.72;;;2.13;;
25079;SDS011;13071;48.868;9.996;2022-10-26T11:30:32;4.55;;;2.03;;
25079;SDS011;13071;48.868;9.996;2022-10-26T11:33:03;8.57;;;2.20;;
25079;SDS011;13071;48.868;9.996;2022-10-26T11:35:37;7.93;;;2.20;;
25079;SDS011;13071;48.868;9.996;2022-10-26T11:38:11;5.15;;;2.40;;
25079;SDS011;13071;48.868;9.996;2022-10-26T11:40:44;3.90;;;2.30;;
25079;SDS011;13071;48.868;9.996;2022-10-26T11:43:20;4.13;;;2.13;;
25079;SDS011;13071;48.868;9.996;2022-10-26T11:45:56;2.92;;;1.88;;
25079;SDS011;13071;48.868;9.996;2022-10-26T11:48:30;2.80;;;2.05;;
25079;SDS011;13071;48.868;9.996;2022-10-26T11:51:01;5.10;;;2.25;;
25079;SDS011;13071;48.868;9.996;2022-10-26T11:53:29;1.98;;;1.80;;
25079;SDS011;13071;48.868;9.996;2022-10-26T11:56:01;5.63;;;2.00;;
25079;SDS011;13071;48.868;9.996;2022-10-26T11:58:31;9.55;;;2.72;;
25079;SDS011;13071;48.868;9.996;2022-10-26T12:00:59;5.70;;;2.45;;
25079;SDS011;13071;48.868;9.996;2022-10-26T12:03:30;8.05;;;2.47;;
25079;SDS011;13071;48.868;9.996;2022-10-26T12:05:59;9.18;;;2.72;;
25079;SDS011;13071;48.868;9.996;2022-10-26T12:08:26;8.13;;;2.67;;
25079;SDS011;13071;48.868;9.996;2022-10-26T12:10:57;3.65;;;2.20;;
25079;SDS011;13071;48.868;9.996;2022-10-26T12:13:29;6.32;;;2.40;;
25079;SDS011;13071;48.868;9.996;2022-10-26T12:16:05;8.45;;;2.45;;
25079;SDS011;13071;48.868;9.996;2022-10-26T12:18:37;6.88;;;2.55;;
25079;SDS011;13071;48.868;9.996;2022-10-26T12:21:08;9.98;;;2.20;;
25079;SDS011;13071;48.868;9.996;2022-10-26T12:23:36;9.10;;;2.70;;
25079;SDS011;13071;48.868;9.996;2022-10-26T12:32:00;7.10;;;2.45;;
25079;SDS011;13071;48.868;9.996;2022-10-26T12:37:27;7.82;;;2.03;;
25079;SDS011;13071;48.868;9.996;2022-10-26T12:40:06;2.22;;;1.70;;
25079;SDS011;13071;48.868;9.996;2022-10-26T12:52:21;8.57;;;2.00;;
25079;SDS011;13071;48.868;9.996;2022-10-26T12:55:01;8.85;;;1.90;;
25079;SDS011;13071;48.868;9.996;2022-10-26T12:57:44;4.82;;;2.28;;
25079;SDS011;13071;48.868;9.996;2022-10-26T13:00:20;5.35;;;2.35;;
25079;SDS011;13071;48.868;9.996;2022-10-26T13:02:53;6.82;;;2.47;;
25079;SDS011;13071;48.868;9.996;2022-10-26T13:05:45;4.90;;;1.92;;
25079;SDS011;13071;48.868;9.996;2022-10-26T13:08:44;7.03;;;2.35;;
25079;SDS011;13071;48.868;9.996;2022-10-26T13:11:14;3.53;;;2.03;;
25079;SDS011;13071;48.868;9.996;2022-10-26T13:13:43;4.25;;;1.85;;
25079;SDS011;13071;48.868;9.996;2022-10-26T13:16:17;3.42;;;2.10;;
25079;SDS011;13071;48.868;9.996;2022-10-26T13:18:44;3.33;;;1.92;;
25079;SDS011;13071;48.868;9.996;2022-10-26T13:21:13;5.60;;;2.53;;
25079;SDS011;13071;48.868;9.996;2022-10-26T13:23:42;6.35;;;1.77;;
25079;SDS011;13071;48.868;9.996;2022-10-26T13:26:13;4.72;;;2.28;;
25079;SDS011;13071;48.868;9.996;2022-10-26T13:28:42;5.13;;;2.28;;
25079;SDS011;13071;48.868;9.996;2022-10-26T13:31:15;5.70;;;2.30;;
25079;SDS011;13071;48.868;9.996;2022-10-26T13:34:14;6.53;;;2.20;;
25079;SDS011;13071;48.868;9.996;2022-10-26T13:36:44;3.80;;;1.80;;
25079;SDS011;13071;48.868;9.996;2022-10-26T13:39:18;8.52;;;2.20;;
25079;SDS011;13071;48.868;9.996;2022-10-26T13:41:50;7.00;;;2.20;;
25079;SDS011;13071;48.868;9.996;2022-10-26T13:44:20;6.03;;;2.03;;
25079;SDS011;13071;48.868;9.996;2022-10-26T13:46:51;5.80;;;2.00;;
25079;SDS011;13071;48.868;9.996;2022-10-26T13:49:22;6.13;;;2.00;;
25079;SDS011;13071;48.868;9.996;2022-10-26T13:51:53;5.13;;;1.77;;
25079;SDS011;13071;48.868;9.996;2022-10-26T13:54:24;4.50;;;2.13;;
25079;SDS011;13071;48.868;9.996;2022-10-26T13:57:00;4.35;;;2.10;;
25079;SDS011;13071;48.868;9.996;2022-10-26T13:59:37;10.43;;;2.03;;
25079;SDS011;13071;48.868;9.996;2022-10-26T14:02:07;5.13;;;1.83;;
25079;SDS011;13071;48.868;9.996;2022-10-26T14:04:43;6.93;;;2.28;;
25079;SDS011;13071;48.868;9.996;2022-10-26T14:07:13;4.30;;;2.03;;
25079;SDS011;13071;48.868;9.996;2022-10-26T14:09:49;3.38;;;1.88;;
25079;SDS011;13071;48.868;9.996;2022-10-26T14:12:19;5.35;;;2.65;;
25079;SDS011;13071;48.868;9.996;2022-10-26T14:14:46;3.20;;;2.40;;
25079;SDS011;13071;48.868;9.996;2022-10-26T14:17:17;3.58;;;1.88;;
25079;SDS011;13071;48.868;9.996;2022-10-26T14:19:45;7.85;;;2.17;;
25079;SDS011;13071;48.868;9.996;2022-10-26T14:22:16;2.65;;;2.17;;
25079;SDS011;13071;48.868;9.996;2022-10-26T14:24:50;4.60;;;2.42;;
25079;SDS011;13071;48.868;9.996;2022-10-26T14:27:19;4.32;;;2.60;;
25079;SDS011;13071;48.868;9.996;2022-10-26T14:29:47;5.47;;;2.00;;
25079;SDS011;13071;48.868;9.996;2022-10-26T14:32:19;3.42;;;2.17;;
25079;SDS011;13071;48.868;9.996;2022-10-26T14:34:51;4.10;;;2.03;;
25079;SDS011;13071;48.868;9.996;2022-10-26T14:37:21;6.63;;;2.45;;
25079;SDS011;13071;48.868;9.996;2022-10-26T14:39:56;8.18;;;2.28;;
25079;SDS011;13071;48.868;9.996;2022-10-26T14:42:24;9.38;;;2.67;;
25079;SDS011;13071;48.868;9.996;2022-10-26T14:44:54;8.13;;;2.20;;
25079;SDS011;13071;48.868;9.996;2022-10-26T14:47:22;7.07;;;2.20;;
25079;SDS011;13071;48.868;9.996;2022-10-26T14:49:51;7.50;;;2.15;;
25079;SDS011;13071;48.868;9.996;2022-10-26T14:52:20;5.97;;;1.95;;
25079;SDS011;13071;48.868;9.996;2022-10-26T14:54:56;9.07;;;2.45;;
25079;SDS011;13071;48.868;9.996;2022-10-26T14:57:28;6.00;;;2.08;;
25079;SDS011;13071;48.868;9.996;2022-10-26T15:00:00;3.47;;;1.88;;
25079;SDS011;13071;48.868;9.996;2022-10-26T15:02:28;3.80;;;2.05;;
25079;SDS011;13071;48.868;9.996;2022-10-26T15:04:56;2.20;;;1.50;;
25079;SDS011;13071;48.868;9.996;2022-10-26T15:07:32;4.13;;;1.90;;
25079;SDS011;13071;48.868;9.996;2022-10-26T15:10:01;3.10;;;1.70;;
25079;SDS011;13071;48.868;9.996;2022-10-26T15:12:29;1.85;;;1.63;;
25079;SDS011;13071;48.868;9.996;2022-10-26T15:14:59;3.60;;;1.70;;
25079;SDS011;13071;48.868;9.996;2022-10-26T15:17:36;2.75;;;1.73;;
25079;SDS011;13071;48.868;9.996;2022-10-26T15:20:10;3.72;;;2.10;;
25079;SDS011;13071;48.868;9.996;2022-10-26T15:22:41;5.93;;;2.33;;
25079;SDS011;13071;48.868;9.996;2022-10-26T15:25:15;4.57;;;1.90;;
25079;SDS011;13071;48.868;9.996;2022-10-26T15:27:45;2.15;;;1.55;;
25079;SDS011;13071;48.868;9.996;2022-10-26T15:30:19;4.93;;;1.83;;
25079;SDS011;13071;48.868;9.996;2022-10-26T15:32:48;5.88;;;2.40;;
25079;SDS011;13071;48.868;9.996;2022-10-26T15:35:22;5.80;;;2.10;;